createdAt,value
2022-09-18T00:02:18.407Z,2.50
2022-09-18T00:04:44.868Z,3.17
2022-09-18T00:07:11.244Z,1.90
2022-09-18T00:09:37.695Z,2.83
2022-09-18T00:12:04.344Z,2.75
2022-09-18T00:14:30.736Z,2.53
2022-09-18T00:16:57.099Z,3.40
2022-09-18T00:19:23.482Z,1.65
2022-09-18T00:21:51.061Z,2.33
2022-09-18T00:24:18.699Z,2.05
2022-09-18T00:26:46.358Z,1.67
2022-09-18T00:29:14.184Z,1.95
2022-09-18T00:31:42.178Z,2.58
2022-09-18T00:34:14.360Z,2.20
2022-09-18T00:36:41.768Z,2.33
2022-09-18T00:39:08.787Z,2.17
2022-09-18T00:41:38.324Z,2.35
2022-09-18T00:44:37.557Z,1.98
2022-09-18T00:47:16.851Z,2.45
2022-09-18T00:50:07.231Z,1.95
2022-09-18T00:52:46.620Z,2.15
2022-09-18T00:55:14.222Z,2.20
2022-09-18T00:57:49.270Z,2.80
2022-09-18T01:00:15.850Z,1.88
2022-09-18T01:02:44.360Z,2.42
2022-09-18T01:05:11.113Z,1.92
2022-09-18T01:07:43.556Z,1.48
2022-09-18T01:10:30.817Z,2.20
2022-09-18T01:13:02.556Z,1.70
2022-09-18T01:15:43.811Z,2.10
2022-09-18T01:18:27.898Z,2.13
2022-09-18T01:21:06.869Z,2.42
2022-09-18T01:24:11.829Z,2.05
2022-09-18T01:27:01.456Z,1.98
2022-09-18T01:29:42.413Z,2.35
2022-09-18T01:32:30.084Z,1.90
2022-09-18T01:35:10.123Z,1.80
2022-09-18T01:37:58.780Z,1.30
2022-09-18T01:40:31.146Z,2.25
2022-09-18T01:43:01.841Z,2.63
2022-09-18T01:45:35.840Z,1.98
2022-09-18T01:48:08.591Z,2.00
2022-09-18T01:50:46.117Z,1.80
2022-09-18T01:53:18.559Z,1.75
2022-09-18T01:55:52.940Z,2.30
2022-09-18T01:58:23.396Z,1.30
2022-09-18T02:00:57.139Z,1.20
2022-09-18T02:03:33.807Z,2.03
2022-09-18T02:06:06.526Z,1.25
2022-09-18T02:08:53.169Z,1.45
2022-09-18T02:11:22.572Z,1.77
2022-09-18T02:13:56.236Z,1.27
2022-09-18T02:16:56.603Z,1.67
2022-09-18T02:19:31.311Z,2.20
2022-09-18T02:22:01.784Z,1.52
2022-09-18T02:24:33.843Z,1.50
2022-09-18T02:27:03.271Z,1.73
2022-09-18T02:29:31.067Z,1.73
2022-09-18T02:32:00.009Z,1.88
2022-09-18T02:34:28.614Z,1.95
2022-09-18T02:37:07.195Z,1.17
2022-09-18T02:40:04.850Z,1.23
2022-09-18T02:43:04.341Z,1.30
2022-09-18T02:45:41.447Z,1.92
2022-09-18T02:48:35.979Z,1.63
2022-09-18T02:51:11.801Z,1.42
2022-09-18T02:53:55.010Z,1.95
2022-09-18T02:56:40.241Z,1.92
2022-09-18T02:59:14.726Z,1.15
2022-09-18T03:01:44.249Z,1.63
2022-09-18T03:04:14.883Z,1.88
2022-09-18T03:06:56.500Z,1.58
2022-09-18T03:09:24.315Z,1.88
2022-09-18T03:11:50.935Z,1.13
2022-09-18T03:14:18.933Z,1.50
2022-09-18T03:16:45.567Z,1.40
2022-09-18T03:19:14.244Z,1.80
2022-09-18T03:21:42.378Z,1.30
2022-09-18T03:24:10.807Z,1.65
2022-09-18T03:26:40.872Z,1.50
2022-09-18T03:29:11.276Z,1.50
2022-09-18T03:31:40.931Z,1.30
2022-09-18T03:34:07.372Z,1.40
2022-09-18T03:36:34.248Z,1.70
2022-09-18T03:39:00.866Z,1.40
2022-09-18T03:41:28.688Z,1.60
2022-09-18T03:43:56.354Z,1.65
2022-09-18T03:46:24.018Z,1.50
2022-09-18T03:48:54.040Z,2.03
2022-09-18T03:51:22.074Z,1.88
2022-09-18T03:53:48.875Z,1.20
2022-09-18T03:56:44.470Z,1.55
2022-09-18T03:59:29.735Z,2.08
2022-09-18T04:02:05.465Z,1.67
2022-09-18T04:04:53.744Z,1.35
2022-09-18T04:07:52.442Z,1.13
2022-09-18T04:10:42.136Z,1.52
2022-09-18T04:13:08.612Z,1.70
2022-09-18T04:15:36.414Z,1.30
2022-09-18T04:18:02.817Z,1.38
2022-09-18T04:20:29.226Z,1.08
2022-09-18T04:22:57.542Z,1.40
2022-09-18T04:25:24.058Z,2.08
2022-09-18T04:27:50.488Z,1.08
2022-09-18T04:30:18.456Z,1.60
2022-09-18T04:32:45.598Z,1.40
2022-09-18T04:35:12.535Z,1.23
2022-09-18T04:37:39.072Z,1.55
2022-09-18T04:40:07.218Z,1.00
2022-09-18T04:42:33.950Z,1.27
2022-09-18T04:45:01.032Z,1.25
2022-09-18T04:47:27.534Z,1.20
2022-09-18T04:49:53.965Z,0.93
2022-09-18T04:52:20.824Z,1.65
2022-09-18T04:54:47.204Z,1.20
2022-09-18T04:57:13.856Z,1.25
2022-09-18T04:59:45.394Z,1.25
2022-09-18T05:02:12.044Z,1.05
2022-09-18T05:04:38.582Z,0.95
2022-09-18T05:07:12.427Z,2.10
2022-09-18T05:09:38.943Z,1.45
2022-09-18T05:12:06.817Z,1.20
2022-09-18T05:14:34.897Z,1.23
2022-09-18T05:17:03.528Z,1.77
2022-09-18T05:19:36.530Z,1.40
2022-09-18T05:22:11.809Z,1.42
2022-09-18T05:24:42.363Z,1.42
2022-09-18T05:27:08.922Z,1.20
2022-09-18T05:29:35.749Z,1.92
2022-09-18T05:32:10.168Z,1.42
2022-09-18T05:34:37.299Z,1.35
2022-09-18T05:37:03.633Z,1.05
2022-09-18T05:39:30.047Z,1.10
2022-09-18T05:41:58.651Z,1.02
2022-09-18T05:44:25.060Z,1.35
2022-09-18T05:46:52.135Z,1.13
2022-09-18T05:49:18.662Z,0.90
2022-09-18T05:51:46.255Z,1.10
2022-09-18T05:54:14.251Z,1.00
2022-09-18T05:56:43.477Z,0.90
2022-09-18T05:59:11.129Z,1.67
2022-09-18T06:01:37.504Z,1.13
2022-09-18T06:04:16.675Z,0.90
2022-09-18T06:06:49.049Z,1.08
2022-09-18T06:09:15.424Z,0.95
2022-09-18T06:11:41.970Z,1.17
2022-09-18T06:14:08.903Z,1.00
2022-09-18T06:16:38.736Z,1.13
2022-09-18T06:19:08.812Z,0.65
2022-09-18T06:21:35.205Z,1.23
2022-09-18T06:24:02.845Z,1.00
2022-09-18T06:26:37.821Z,1.00
2022-09-18T06:29:05.873Z,1.08
2022-09-18T06:31:40.784Z,0.73
2022-09-18T06:34:09.539Z,1.40
2022-09-18T06:36:35.988Z,1.58
2022-09-18T06:39:21.250Z,1.23
2022-09-18T06:41:50.848Z,2.42
2022-09-18T06:44:21.110Z,0.90
2022-09-18T06:47:02.213Z,1.00
2022-09-18T06:49:35.876Z,0.88
2022-09-18T06:52:03.330Z,0.90
2022-09-18T06:54:31.249Z,1.35
2022-09-18T06:56:57.826Z,1.02
2022-09-18T06:59:24.260Z,1.10
2022-09-18T07:01:51.535Z,1.00
2022-09-18T07:04:26.212Z,0.80
2022-09-18T07:06:52.569Z,0.85
2022-09-18T07:09:19.540Z,0.75
2022-09-18T07:11:51.708Z,0.77
2022-09-18T07:14:18.459Z,1.05
2022-09-18T07:16:44.835Z,0.90
2022-09-18T07:19:12.064Z,0.90
2022-09-18T07:21:39.450Z,0.88
2022-09-18T07:24:06.266Z,0.80
2022-09-18T07:26:32.811Z,1.00
2022-09-18T07:28:59.207Z,1.10
2022-09-18T07:31:30.698Z,0.68
2022-09-18T07:33:57.539Z,1.05
2022-09-18T07:36:27.843Z,0.80
2022-09-18T07:38:54.264Z,1.70
2022-09-18T07:41:23.667Z,0.85
2022-09-18T07:43:50.635Z,0.50
2022-09-18T07:46:17.779Z,0.80
2022-09-18T07:48:46.964Z,1.33
2022-09-18T07:51:26.030Z,1.00
2022-09-18T07:53:53.605Z,0.50
2022-09-18T07:56:30.583Z,0.88
2022-09-18T07:58:57.296Z,1.42
2022-09-18T08:01:25.702Z,1.00
2022-09-18T08:03:55.312Z,0.70
2022-09-18T08:06:39.846Z,0.77
2022-09-18T08:09:16.909Z,0.93
2022-09-18T08:12:15.369Z,0.82
2022-09-18T08:15:00.753Z,0.88
2022-09-18T08:17:44.289Z,1.00
2022-09-18T08:20:35.710Z,1.15
2022-09-18T08:23:14.803Z,0.60
2022-09-18T08:25:42.116Z,0.80
2022-09-18T08:28:09.741Z,0.68
2022-09-18T08:30:44.017Z,0.90
2022-09-18T08:33:12.136Z,0.50
2022-09-18T08:35:39.760Z,0.47
2022-09-18T08:38:18.967Z,0.68
2022-09-18T08:41:24.390Z,1.00
2022-09-18T08:44:12.217Z,0.70
2022-09-18T08:46:56.442Z,0.73
2022-09-18T08:49:47.244Z,1.17
2022-09-18T08:52:21.517Z,1.00
2022-09-18T08:55:27.716Z,0.90
2022-09-18T08:58:37.448Z,1.00
2022-09-18T09:01:09.518Z,1.15
2022-09-18T09:04:04.673Z,1.42
2022-09-18T09:06:52.436Z,1.48
2022-09-18T09:09:40.375Z,1.45
2022-09-18T09:12:43.593Z,1.33
2022-09-18T09:15:28.797Z,1.63
2022-09-18T09:18:04.095Z,1.30
2022-09-18T09:20:45.481Z,1.45
2022-09-18T09:23:54.495Z,1.42
2022-09-18T09:26:44.115Z,1.55
2022-09-18T09:29:24.305Z,1.52
2022-09-18T09:32:23.113Z,1.30
2022-09-18T09:35:32.121Z,1.23
2022-09-18T09:38:27.320Z,1.10
2022-09-18T09:40:54.566Z,1.35
2022-09-18T09:43:37.312Z,0.90
2022-09-18T09:48:53.157Z,1.27
2022-09-18T09:51:30.063Z,1.58
2022-09-18T09:54:41.658Z,1.35
2022-09-18T09:57:29.679Z,1.73
2022-09-18T10:00:12.753Z,1.70
2022-09-18T10:03:00.969Z,1.45
2022-09-18T10:05:47.607Z,1.75
2022-09-18T10:08:27.226Z,1.42
2022-09-18T10:10:57.941Z,1.40
2022-09-18T10:13:40.770Z,1.27
2022-09-18T10:16:29.354Z,1.40
2022-09-18T10:18:59.296Z,1.77
2022-09-18T10:21:29.069Z,1.65
2022-09-18T10:24:09.667Z,2.35
2022-09-18T10:26:51.812Z,2.08
2022-09-18T10:29:18.500Z,1.48
2022-09-18T10:31:55.648Z,1.40
2022-09-18T10:34:50.121Z,2.35
2022-09-18T10:37:30.832Z,1.13
2022-09-18T10:40:04.540Z,1.30
2022-09-18T10:42:34.339Z,1.33
2022-09-18T10:47:49.971Z,0.65
2022-09-18T10:50:19.642Z,0.80
2022-09-18T10:52:49.575Z,0.55
2022-09-18T10:55:29.092Z,0.93
2022-09-18T10:58:12.424Z,1.00
2022-09-18T11:01:00.954Z,5.60
2022-09-18T11:03:32.620Z,4.65
2022-09-18T11:06:03.371Z,6.55
2022-09-18T11:08:43.630Z,1.25
2022-09-18T11:11:19.571Z,1.52
2022-09-18T11:13:58.245Z,1.40
2022-09-18T11:16:31.135Z,1.02
2022-09-18T11:19:07.939Z,1.17
2022-09-18T11:21:46.919Z,1.00
2022-09-18T11:24:36.315Z,1.10
2022-09-18T11:27:22.641Z,1.10
2022-09-18T11:29:52.878Z,1.30
2022-09-18T11:32:27.476Z,0.82
2022-09-18T11:35:03.026Z,1.35
2022-09-18T11:37:37.872Z,1.00
2022-09-18T11:40:08.888Z,1.27
2022-09-18T11:45:28.492Z,1.33
2022-09-18T11:48:15.143Z,1.17
2022-09-18T11:50:42.455Z,0.93
2022-09-18T11:53:19.718Z,1.30
2022-09-18T11:56:05.075Z,1.05
2022-09-18T11:58:41.498Z,1.30
2022-09-18T12:01:38.868Z,1.20
2022-09-18T12:04:24.581Z,1.65
2022-09-18T12:10:23.713Z,1.67
2022-09-18T12:13:13.567Z,1.10
2022-09-18T12:15:48.306Z,1.65
2022-09-18T12:18:25.653Z,1.30
2022-09-18T12:20:59.870Z,1.23
2022-09-18T12:23:27.033Z,1.23
2022-09-18T12:26:06.112Z,1.80
2022-09-18T12:28:57.099Z,1.33
2022-09-18T12:31:50.001Z,1.80
2022-09-18T12:34:46.920Z,1.55
2022-09-18T12:37:38.356Z,1.45
2022-09-18T12:40:15.613Z,2.10
2022-09-18T12:43:00.487Z,1.70
2022-09-18T12:45:29.979Z,1.70
2022-09-18T12:48:13.953Z,1.52
2022-09-18T12:51:16.278Z,1.63
2022-09-18T12:54:15.221Z,1.40
2022-09-18T12:56:53.978Z,1.23
2022-09-18T12:59:54.083Z,1.58
2022-09-18T13:03:08.940Z,2.83
2022-09-18T13:05:40.135Z,1.98
2022-09-18T13:08:21.837Z,1.27
2022-09-18T13:10:53.656Z,1.52
2022-09-18T13:13:33.041Z,1.00
2022-09-18T13:16:06.669Z,1.27
2022-09-18T13:18:52.708Z,1.25
2022-09-18T13:21:33.052Z,2.05
2022-09-18T13:24:00.519Z,1.20
2022-09-18T13:26:30.885Z,2.17
2022-09-18T13:28:57.334Z,1.98
2022-09-18T13:31:34.820Z,1.77
2022-09-18T13:34:14.513Z,1.80
2022-09-18T13:36:44.082Z,1.90
2022-09-18T13:39:37.593Z,2.22
2022-09-18T13:42:12.594Z,1.48
2022-09-18T13:44:39.074Z,1.52
2022-09-18T13:47:14.226Z,1.30
2022-09-18T13:49:56.814Z,2.47
2022-09-18T13:52:35.475Z,1.10
2022-09-18T13:55:11.077Z,2.08
2022-09-18T13:57:38.211Z,1.30
2022-09-18T14:00:21.671Z,1.25
2022-09-18T14:03:11.552Z,1.27
2022-09-18T14:05:39.761Z,1.58
2022-09-18T14:08:24.364Z,4.20
2022-09-18T14:11:14.493Z,1.60
2022-09-18T14:13:52.317Z,2.28
2022-09-18T14:16:18.748Z,1.40
2022-09-18T14:18:48.193Z,1.05
2022-09-18T14:21:17.725Z,2.15
2022-09-18T14:23:47.253Z,1.58
2022-09-18T14:26:29.168Z,2.60
2022-09-18T14:29:17.091Z,2.65
2022-09-18T14:31:51.934Z,1.98
2022-09-18T14:34:24.275Z,1.40
2022-09-18T14:36:55.048Z,1.45
2022-09-18T14:39:27.275Z,1.40
2022-09-18T14:41:57.887Z,1.52
2022-09-18T14:44:26.125Z,1.75
2022-09-18T14:46:58.813Z,2.45
2022-09-18T14:49:33.871Z,1.30
2022-09-18T14:52:04.362Z,1.65
2022-09-18T14:54:31.300Z,1.40
2022-09-18T14:57:01.783Z,1.05
2022-09-18T14:59:29.143Z,1.63
2022-09-18T15:02:17.235Z,1.45
2022-09-18T15:04:45.429Z,1.40
2022-09-18T15:07:18.349Z,1.40
2022-09-18T15:09:48.980Z,2.10
2022-09-18T15:12:21.304Z,2.42
2022-09-18T15:14:48.057Z,1.67
2022-09-18T15:17:23.130Z,1.63
2022-09-18T15:20:01.881Z,1.15
2022-09-18T15:22:29.583Z,1.58
2022-09-18T15:25:00.584Z,1.52
2022-09-18T15:27:28.120Z,1.70
2022-09-18T15:30:08.003Z,1.83
2022-09-18T15:32:40.220Z,2.88
2022-09-18T15:35:13.755Z,2.78
2022-09-18T15:38:02.715Z,2.22
2022-09-18T15:40:39.697Z,1.50
2022-09-18T15:43:33.588Z,1.42
2022-09-18T15:46:06.192Z,1.83
2022-09-18T15:48:36.092Z,1.20
2022-09-18T15:51:17.337Z,1.63
2022-09-18T15:54:22.608Z,1.50
2022-09-18T15:56:57.824Z,1.65
2022-09-18T15:59:36.948Z,2.45
2022-09-18T16:02:19.666Z,2.03
2022-09-18T16:04:46.435Z,1.40
2022-09-18T16:07:26.797Z,2.20
2022-09-18T16:09:53.796Z,1.50
2022-09-18T16:12:29.350Z,1.52
2022-09-18T16:15:15.149Z,1.40
2022-09-18T16:18:12.536Z,1.50
2022-09-18T16:20:41.315Z,1.45
2022-09-18T16:23:33.280Z,1.70
2022-09-18T16:26:12.950Z,1.52
2022-09-18T16:28:56.071Z,1.23
2022-09-18T16:31:25.857Z,1.92
2022-09-18T16:34:01.323Z,2.10
2022-09-18T16:36:35.911Z,1.80
2022-09-18T16:39:08.075Z,1.15
2022-09-18T16:41:35.078Z,2.10
2022-09-18T16:44:04.165Z,1.95
2022-09-18T16:46:36.766Z,1.17
2022-09-18T16:49:03.477Z,2.55
2022-09-18T16:51:30.065Z,1.75
2022-09-18T16:53:56.808Z,2.88
2022-09-18T16:56:28.109Z,2.60
2022-09-18T16:58:57.118Z,1.80
2022-09-18T17:01:23.947Z,1.85
2022-09-18T17:03:50.940Z,2.28
2022-09-18T17:06:18.960Z,1.42
2022-09-18T17:08:46.943Z,1.50
2022-09-18T17:11:13.705Z,1.45
2022-09-18T17:13:40.174Z,1.50
2022-09-18T17:16:06.580Z,1.63
2022-09-18T17:18:34.163Z,1.63
2022-09-18T17:21:02.808Z,2.65
2022-09-18T17:23:30.540Z,2.15
2022-09-18T17:26:09.075Z,1.85
2022-09-18T17:28:37.091Z,1.73
2022-09-18T17:31:11.590Z,1.75
2022-09-18T17:33:39.173Z,1.73
2022-09-18T17:36:07.195Z,1.92
2022-09-18T17:38:35.755Z,2.10
2022-09-18T17:41:04.185Z,1.98
2022-09-18T17:43:30.690Z,1.80
2022-09-18T17:45:59.658Z,2.28
2022-09-18T17:48:27.614Z,2.50
2022-09-18T17:50:58.056Z,2.10
2022-09-18T17:53:25.914Z,1.92
2022-09-18T17:55:55.395Z,1.48
2022-09-18T17:58:21.846Z,1.70
2022-09-18T18:00:48.397Z,1.20
2022-09-18T18:03:14.812Z,1.77
2022-09-18T18:05:41.284Z,1.40
2022-09-18T18:08:07.684Z,1.45
2022-09-18T18:10:36.460Z,1.17
2022-09-18T18:13:02.949Z,1.75
2022-09-18T18:15:29.296Z,1.42
2022-09-18T18:17:55.745Z,3.35
2022-09-18T18:20:22.953Z,2.55
2022-09-18T18:22:49.416Z,3.72
2022-09-18T18:25:15.727Z,3.20
2022-09-18T18:27:42.117Z,2.70
2022-09-18T18:30:09.048Z,2.67
2022-09-18T18:32:35.629Z,2.50
2022-09-18T18:35:02.074Z,2.28
2022-09-18T18:37:28.517Z,2.53
2022-09-18T18:39:55.046Z,2.90
2022-09-18T18:42:21.565Z,3.20
2022-09-18T18:44:47.983Z,2.20
2022-09-18T18:47:14.432Z,2.75
2022-09-18T18:49:40.925Z,2.45
2022-09-18T18:52:07.467Z,2.22
2022-09-18T18:54:33.793Z,2.35
2022-09-18T18:57:01.271Z,1.80
2022-09-18T18:59:27.778Z,2.25
2022-09-18T19:01:56.323Z,1.60
2022-09-18T19:04:23.331Z,1.35
2022-09-18T19:06:50.126Z,0.60
2022-09-18T19:09:22.096Z,1.80
2022-09-18T19:11:50.177Z,1.38
2022-09-18T19:14:28.922Z,0.70
2022-09-18T19:16:55.505Z,0.60
2022-09-18T19:19:24.787Z,0.50
2022-09-18T19:21:52.756Z,1.25
2022-09-18T19:24:19.193Z,1.23
2022-09-18T19:26:46.947Z,0.70
2022-09-18T19:29:18.133Z,0.80
2022-09-18T19:31:45.735Z,1.23
2022-09-18T19:34:16.495Z,1.10
2022-09-18T19:36:46.964Z,0.80
2022-09-18T19:39:13.905Z,0.90
2022-09-18T19:42:00.861Z,0.98
2022-09-18T19:44:53.558Z,1.10
2022-09-18T19:47:32.575Z,0.77
2022-09-18T19:50:01.544Z,1.00
2022-09-18T19:52:29.032Z,1.10
2022-09-18T19:54:57.502Z,0.70
2022-09-18T19:57:26.036Z,0.70
2022-09-18T19:59:54.173Z,0.80
2022-09-18T20:02:21.784Z,1.00
2022-09-18T20:04:48.317Z,0.82
2022-09-18T20:07:14.926Z,1.08
2022-09-18T20:09:41.518Z,0.70
2022-09-18T20:12:09.147Z,1.00
2022-09-18T20:14:35.631Z,0.70
2022-09-18T20:17:02.641Z,1.00
2022-09-18T20:19:29.378Z,1.00
2022-09-18T20:21:56.372Z,1.10
2022-09-18T20:24:23.069Z,0.88
2022-09-18T20:26:50.763Z,0.88
2022-09-18T20:29:17.149Z,0.75
2022-09-18T20:31:45.834Z,0.80
2022-09-18T20:34:12.891Z,0.90
2022-09-18T20:36:39.220Z,1.13
2022-09-18T20:39:05.763Z,1.30
2022-09-18T20:41:32.182Z,1.35
2022-09-18T20:44:05.559Z,1.30
2022-09-18T20:46:36.479Z,1.02
2022-09-18T20:49:04.199Z,1.05
2022-09-18T20:51:34.702Z,1.38
2022-09-18T20:54:02.854Z,1.17
2022-09-18T20:56:44.632Z,1.15
2022-09-18T20:59:13.133Z,1.45
2022-09-18T21:01:42.912Z,0.93
2022-09-18T21:04:19.683Z,1.13
2022-09-18T21:06:51.627Z,0.70
2022-09-18T21:09:18.204Z,1.05
2022-09-18T21:11:45.927Z,1.08
2022-09-18T21:14:15.777Z,1.13
2022-09-18T21:16:45.086Z,0.77
2022-09-18T21:19:19.175Z,1.25
2022-09-18T21:21:47.249Z,0.88
2022-09-18T21:24:14.674Z,1.02
2022-09-18T21:26:46.518Z,1.25
2022-09-18T21:29:12.987Z,1.02
2022-09-18T21:31:43.617Z,0.70
2022-09-18T21:34:15.641Z,0.90
2022-09-18T21:36:45.995Z,0.70
2022-09-18T21:39:14.237Z,0.82
2022-09-18T21:41:45.970Z,1.13
2022-09-18T21:44:14.784Z,0.85
2022-09-18T21:46:42.402Z,1.05
2022-09-18T21:49:10.131Z,1.10
2022-09-18T21:51:40.213Z,1.40
2022-09-18T21:54:07.962Z,1.15
2022-09-18T21:56:34.703Z,0.90
2022-09-18T21:59:01.157Z,1.00
2022-09-18T22:01:31.467Z,0.93
2022-09-18T22:04:00.820Z,1.00
2022-09-18T22:06:31.036Z,0.80
2022-09-18T22:08:59.783Z,0.52
2022-09-18T22:11:29.706Z,0.70
2022-09-18T22:13:58.750Z,1.25
2022-09-18T22:16:27.919Z,1.00
2022-09-18T22:18:54.539Z,1.10
2022-09-18T22:21:30.187Z,0.70
2022-09-18T22:23:59.593Z,0.95
2022-09-18T22:26:28.206Z,0.90
2022-09-18T22:28:56.604Z,0.57
2022-09-18T22:31:24.617Z,0.82
2022-09-18T22:33:57.358Z,0.80
2022-09-18T22:36:25.582Z,1.30
2022-09-18T22:38:53.069Z,1.00
2022-09-18T22:41:20.117Z,0.70
2022-09-18T22:43:47.268Z,0.60
2022-09-18T22:46:16.308Z,0.80
2022-09-18T22:48:43.326Z,0.88
2022-09-18T22:51:19.182Z,1.25
2022-09-18T22:53:54.222Z,0.90
2022-09-18T22:56:21.773Z,0.80
2022-09-18T22:58:49.395Z,0.82
2022-09-18T23:01:31.124Z,0.90
2022-09-18T23:03:59.333Z,0.80
2022-09-18T23:06:27.025Z,0.52
2022-09-18T23:08:55.128Z,2.10
2022-09-18T23:11:24.422Z,8.07
2022-09-18T23:13:57.796Z,8.48
2022-09-18T23:16:27.151Z,3.22
2022-09-18T23:18:58.955Z,2.58
2022-09-18T23:21:28.054Z,1.13
2022-09-18T23:23:55.598Z,1.20
2022-09-18T23:26:25.651Z,0.93
2022-09-18T23:28:54.216Z,0.85
2022-09-18T23:31:27.031Z,1.00
2022-09-18T23:33:55.886Z,0.98
2022-09-18T23:36:27.956Z,0.93
2022-09-18T23:38:58.228Z,0.82
2022-09-18T23:41:25.430Z,0.77
2022-09-18T23:43:53.980Z,0.80
2022-09-18T23:46:21.683Z,1.38
2022-09-18T23:48:54.787Z,0.70
2022-09-18T23:53:52.241Z,0.60
2022-09-18T23:56:19.240Z,0.57
2022-09-18T23:58:45.928Z,0.77
